Arapahoe, Wyoming
Current Conditions -  °F | °C
As of 10:53 PM on Saturday 25 Oct 2014 (Local Time) from KRIW Reporting Station
Clear Clear  
Wind Chill: 59°   Ceiling: Unl
Heat Index: 59°   Visibility: 10mi
Dew Point: 27°   Wind: 10mph
Humidity: 29%   Direction: 180°S
Pressure: 29.85"   Gusts: NA
Location:  42.96°N, 108.49°W
Report Text: KRIW 260453Z AUTO 18009KT 10SM CLR 15/M03 A2985 RMK AO2 SLP065 T01501028
Loading
Personal Weather Stations






























Interactive Weather Map New forecast layout! Learn more

10-Day Weather Forecast

Advertisements
Track Severe Weather on mobile